< < Back
Terminal Aerodrome Forecast


Current Version              Previous Versions:   1  2  3  4  5  6  7  8  9  

Terminal Aerodrome Forecast

968
FTUS42 KCHS 252330
TAFSAV
TAF
KSAV 252330Z 2600/2624 VRB04KT P6SM SKC
     FM261800 13008KT P6SM SKC=

Latest METAR

127
SAUS80 KWBC 260700 CCA
MTRSAV
METAR KSAV 260653Z AUTO 17003KT 10SM CLR 21/18 A3018 RMK AO2 SLP219
T02110183 TSNO


USA.gov is the U.S. government's official web portal to all federal, state and local government web resources and services.